Time;durP1;ratioP1;P1;durP2;ratioP2;P2;SDS_P1;SDS_P2;PMS_P1;PMS_P2;Temp;Humidity;BMP_temperature;BMP_pressure;BME280_temperature;BME280_humidity;BME280_pressure;Samples;Min_cycle;Max_cycle;Signal;HPM_P1;HPM_P2
2024/02/29 00:01:44;;;;;;;39.53;14.48;;;;;;;-0.29;100.00;99162.41;5060282;28;20090;-74
2024/02/29 00:04:09;;;;;;;41.67;15.32;;;;;;;-0.19;100.00;99175.78;5075578;28;20024;-74
2024/02/29 00:06:34;;;;;;;39.13;14.68;;;;;;;-0.17;100.00;99173.84;5068751;28;20070;-74
2024/02/29 00:09:00;;;;;;;42.35;16.50;;;;;;;-0.07;100.00;99191.59;5061730;28;20101;-74
2024/02/29 00:11:25;;;;;;;40.75;16.35;;;;;;;-0.25;100.00;99167.34;5066350;28;20315;-74
2024/02/29 00:13:52;;;;;;;32.80;14.57;;;;;;;-0.29;100.00;99181.00;5076883;28;20043;-74
2024/02/29 00:16:18;;;;;;;34.28;13.88;;;;;;;-0.43;100.00;99168.00;5063958;28;20071;-74
2024/02/29 00:18:43;;;;;;;37.45;14.20;;;;;;;-0.45;100.00;99187.59;5065169;28;20324;-73
2024/02/29 00:21:09;;;;;;;38.08;13.57;;;;;;;-0.66;100.00;99173.34;5070487;28;20044;-75
2024/02/29 00:23:35;;;;;;;41.53;14.93;;;;;;;-0.50;100.00;99194.22;5066173;28;20028;-74
2024/02/29 00:26:00;;;;;;;38.15;16.10;;;;;;;-0.56;100.00;99184.09;5070590;28;20216;-73
2024/02/29 00:28:25;;;;;;;42.05;15.57;;;;;;;-0.39;100.00;99178.28;5067504;28;20032;-74
2024/02/29 00:30:51;;;;;;;42.80;15.68;;;;;;;-0.45;100.00;99160.16;5062132;28;20071;-74
2024/02/29 00:33:16;;;;;;;43.70;14.98;;;;;;;-0.51;100.00;99155.34;5068532;28;20025;-75
2024/02/29 00:35:41;;;;;;;43.15;15.57;;;;;;;-0.35;100.00;99170.88;5069107;28;20028;-74
2024/02/29 00:38:06;;;;;;;35.20;14.40;;;;;;;-0.48;100.00;99155.09;5063493;28;20025;-74
2024/02/29 00:40:32;;;;;;;39.60;14.10;;;;;;;-0.36;100.00;99162.06;5069962;28;20095;-73
2024/02/29 00:42:57;;;;;;;36.72;13.93;;;;;;;-0.47;100.00;99165.59;5069342;28;20078;-74
2024/02/29 00:45:23;;;;;;;38.35;13.70;;;;;;;-0.61;100.00;99159.72;5062127;28;20032;-74
2024/02/29 00:47:49;;;;;;;33.08;13.30;;;;;;;-0.58;100.00;99165.59;5066531;28;20072;-74
2024/02/29 00:50:15;;;;;;;34.83;12.80;;;;;;;-0.74;100.00;99154.53;5075782;28;20043;-74
2024/02/29 00:52:40;;;;;;;37.38;13.52;;;;;;;-0.73;100.00;99149.09;5070072;28;20017;-74
2024/02/29 00:55:07;;;;;;;40.25;13.65;;;;;;;-0.80;100.00;99147.91;5073088;28;20017;-75
2024/02/29 00:57:32;;;;;;;39.38;14.77;;;;;;;-0.83;100.00;99148.16;5074949;28;20201;-74
2024/02/29 00:59:58;;;;;;;48.63;15.55;;;;;;;-0.98;100.00;99123.66;5072927;28;20028;-75
2024/02/29 01:02:23;;;;;;;44.92;15.50;;;;;;;-0.91;100.00;99137.31;5068479;28;20024;-73
2024/02/29 01:04:48;;;;;;;43.22;15.15;;;;;;;-0.99;100.00;99132.59;5073029;28;20091;-74
2024/02/29 01:07:13;;;;;;;45.88;16.08;;;;;;;-0.81;100.00;99143.56;5064138;28;20025;-74
2024/02/29 01:09:39;;;;;;;51.95;17.48;;;;;;;-0.81;100.00;99135.59;5072371;28;20067;-72
2024/02/29 01:12:05;;;;;;;55.47;16.63;;;;;;;-0.63;100.00;99135.91;5073242;28;20099;-72
2024/02/29 01:14:30;;;;;;;49.42;16.17;;;;;;;-0.64;100.00;99118.28;5072902;28;20028;-73
2024/02/29 01:16:56;;;;;;;48.10;14.98;;;;;;;-0.65;100.00;99123.75;5071709;28;20112;-74
2024/02/29 01:19:22;;;;;;;41.33;15.75;;;;;;;-0.67;100.00;99116.72;5068136;28;20028;-74
2024/02/29 01:21:47;;;;;;;51.80;15.07;;;;;;;-0.70;100.00;99114.31;5076726;28;20021;-73
2024/02/29 01:24:12;;;;;;;51.67;16.55;;;;;;;-0.73;100.00;99109.25;5066339;28;20092;-73
2024/02/29 01:26:38;;;;;;;44.53;14.93;;;;;;;-0.56;100.00;99125.63;5068358;28;20028;-74
2024/02/29 01:29:03;;;;;;;40.47;15.02;;;;;;;-0.58;100.00;99122.25;5071121;28;20094;-73
2024/02/29 01:31:28;;;;;;;44.30;15.65;;;;;;;-0.69;100.00;99121.31;5069315;28;20034;-72
2024/02/29 01:33:54;;;;;;;45.20;13.98;;;;;;;-0.83;100.00;99107.47;5072477;28;20029;-73
2024/02/29 01:36:19;;;;;;;37.03;13.90;;;;;;;-0.98;100.00;99090.94;5073822;28;20087;-74
2024/02/29 01:38:44;;;;;;;43.63;14.20;;;;;;;-0.97;100.00;99096.16;5074149;28;20050;-73
2024/02/29 01:41:09;;;;;;;42.20;14.45;;;;;;;-0.95;100.00;99094.19;5073697;28;20092;-73
2024/02/29 01:43:35;;;;;;;47.83;15.07;;;;;;;-0.98;100.00;99090.94;5068277;28;20067;-73
2024/02/29 01:46:12;;;;;;;43.42;14.55;;;;;;;-0.83;100.00;99105.66;5068259;28;20062;-73
2024/02/29 01:48:38;;;;;;;42.65;15.75;;;;;;;-0.74;100.00;99104.91;5076196;28;20025;-74
2024/02/29 01:51:04;;;;;;;45.13;13.93;;;;;;;-0.85;100.00;99104.09;5069506;28;20072;-74
2024/02/29 01:53:30;;;;;;;42.63;16.13;;;;;;;-0.82;100.00;99082.59;5079213;28;20095;-74
2024/02/29 01:55:55;;;;;;;50.70;15.93;;;;;;;-0.86;100.00;99070.50;5070859;28;20031;-74
2024/02/29 01:58:20;;;;;;;46.92;15.38;;;;;;;-0.98;100.00;99081.16;5071438;28;20378;-74
2024/02/29 02:00:46;;;;;;;41.03;14.95;;;;;;;-1.00;100.00;99076.94;5070956;28;20028;-73
2024/02/29 02:03:11;;;;;;;41.30;15.52;;;;;;;-1.05;100.00;99076.47;5072777;28;20096;-73
2024/02/29 02:05:36;;;;;;;41.78;14.63;;;;;;;-0.83;100.00;99096.84;5072208;28;20071;-74
2024/02/29 02:08:03;;;;;;;47.00;16.02;;;;;;;-0.61;100.00;99096.78;5069551;28;20304;-74
2024/02/29 02:10:29;;;;;;;43.95;14.90;;;;;;;-0.59;100.00;99099.31;5072258;28;20021;-72
2024/02/29 02:12:54;;;;;;;41.50;15.00;;;;;;;-0.75;100.00;99079.31;5066006;28;20329;-73
2024/02/29 02:15:20;;;;;;;35.55;13.40;;;;;;;-0.95;100.00;99078.25;5074407;28;20020;-74
2024/02/29 02:17:45;;;;;;;41.95;15.38;;;;;;;-0.92;100.00;99071.84;5069342;28;20231;-73
2024/02/29 02:20:20;;;;;;;36.15;14.23;;;;;;;-0.96;100.00;99070.44;5068575;28;20025;-72
2024/02/29 02:22:46;;;;;;;39.78;14.45;;;;;;;-1.04;100.00;99070.22;5064315;28;20024;-74
2024/02/29 02:25:11;;;;;;;41.92;15.20;;;;;;;-0.99;100.00;99083.97;5074506;28;20621;-73
2024/02/29 02:27:38;;;;;;;47.50;15.07;;;;;;;-0.98;100.00;99088.28;5071119;28;20094;-74
2024/02/29 02:30:06;;;;;;;41.97;14.93;;;;;;;-1.01;100.00;99067.31;5070981;28;20062;-73
2024/02/29 02:32:32;;;;;;;34.20;11.75;;;;;;;-1.00;100.00;99063.66;5066218;28;20017;-73
2024/02/29 02:34:58;;;;;;;47.88;15.27;;;;;;;-0.95;100.00;99074.75;5063294;28;20332;-74
2024/02/29 02:37:23;;;;;;;41.40;15.50;;;;;;;-0.99;100.00;99065.38;5065217;28;20032;-73
2024/02/29 02:39:48;;;;;;;49.17;16.08;;;;;;;-1.00;100.00;99058.34;5064049;28;20025;-74
2024/02/29 02:42:13;;;;;;;48.20;15.48;;;;;;;-1.00;100.00;99064.50;5074657;28;20084;-72
2024/02/29 02:44:39;;;;;;;50.42;15.77;;;;;;;-0.96;100.00;99081.06;5074888;28;20025;-74
2024/02/29 02:47:04;;;;;;;44.58;14.38;;;;;;;-1.00;100.00;99069.81;5066706;28;20029;-73
2024/02/29 02:49:29;;;;;;;45.22;15.70;;;;;;;-1.09;100.00;99051.16;5076080;28;20024;-73
2024/02/29 02:51:55;;;;;;;54.13;16.95;;;;;;;-1.05;100.00;99056.06;5068938;28;20036;-73
2024/02/29 02:54:20;;;;;;;43.50;15.35;;;;;;;-0.97;100.00;99060.75;5068850;28;20024;-73
2024/02/29 02:56:45;;;;;;;44.65;15.18;;;;;;;-1.01;100.00;99043.41;5073226;28;20059;-74
2024/02/29 02:59:11;;;;;;;46.97;16.48;;;;;;;-1.02;100.00;99033.72;5082715;28;20044;-73
2024/02/29 03:01:36;;;;;;;41.83;15.43;;;;;;;-1.04;100.00;99055.13;5075887;28;20036;-72
2024/02/29 03:04:03;;;;;;;46.42;15.70;;;;;;;-1.12;100.00;99045.09;5069574;28;20086;-73
2024/02/29 03:06:29;;;;;;;46.78;14.82;;;;;;;-1.19;100.00;99038.59;5073415;28;20020;-73
2024/02/29 03:08:54;;;;;;;41.17;15.02;;;;;;;-1.12;100.00;99038.97;5066728;28;20043;-73
2024/02/29 03:11:19;;;;;;;44.80;15.40;;;;;;;-1.15;100.00;99036.56;5079745;28;20021;-73
2024/02/29 03:13:45;;;;;;;42.20;14.85;;;;;;;-1.17;100.00;99028.69;5079194;28;20024;-74
2024/02/29 03:16:10;;;;;;;41.58;16.23;;;;;;;-1.24;100.00;99008.91;5071030;28;20305;-74
2024/02/29 03:18:35;;;;;;;46.13;15.48;;;;;;;-1.05;100.00;99036.63;5070595;28;20048;-73
2024/02/29 03:21:02;;;;;;;40.10;14.63;;;;;;;-1.20;100.00;99009.53;5070079;28;20267;-72
2024/02/29 03:23:27;;;;;;;39.78;14.50;;;;;;;-1.15;100.00;99012.66;5080222;28;20239;-73
2024/02/29 03:25:52;;;;;;;41.92;14.43;;;;;;;-1.19;100.00;98995.28;5064812;28;20029;-72
2024/02/29 03:28:18;;;;;;;41.35;14.88;;;;;;;-1.05;100.00;99023.34;5072569;28;20087;-73
2024/02/29 03:30:43;;;;;;;38.67;15.73;;;;;;;-1.32;100.00;98984.81;5072346;28;20370;-72
2024/02/29 03:33:08;;;;;;;34.22;13.38;;;;;;;-1.27;100.00;99017.13;5077651;28;20020;-74
2024/02/29 03:35:33;;;;;;;41.22;14.32;;;;;;;-1.48;100.00;98990.50;5063442;28;20085;-73
2024/02/29 03:37:59;;;;;;;38.50;13.65;;;;;;;-1.53;100.00;98999.81;5068239;28;20099;-73
2024/02/29 03:40:24;;;;;;;41.40;14.48;;;;;;;-1.69;100.00;98973.66;5060953;28;20079;-73
2024/02/29 03:42:49;;;;;;;32.72;13.45;;;;;;;-1.56;100.00;99004.38;5064307;28;20029;-73
2024/02/29 03:45:15;;;;;;;39.38;13.23;;;;;;;-1.66;100.00;99006.06;5070706;28;20020;-74
2024/02/29 03:47:40;;;;;;;50.88;15.43;;;;;;;-1.73;100.00;98970.38;5071048;28;20062;-73
2024/02/29 03:50:05;;;;;;;38.85;14.45;;;;;;;-1.36;100.00;99004.63;5068371;28;20046;-73
2024/02/29 03:52:31;;;;;;;44.35;15.05;;;;;;;-1.28;100.00;99010.16;5071361;28;20193;-74
2024/02/29 03:54:56;;;;;;;46.50;14.32;;;;;;;-1.42;100.00;98982.03;5064700;28;20059;-74
2024/02/29 03:57:21;;;;;;;39.70;15.50;;;;;;;-1.39;100.00;98983.59;5069894;28;20096;-74
2024/02/29 03:59:47;;;;;;;39.90;14.52;;;;;;;-1.42;100.00;98982.03;5065685;28;20039;-72
2024/02/29 04:02:13;;;;;;;51.28;18.65;;;;;;;-1.45;100.00;98992.91;5069283;28;20360;-74
2024/02/29 04:04:39;;;;;;;35.47;14.90;;;;;;;-1.47;100.00;98992.19;5058394;28;20020;-77
2024/02/29 04:07:05;;;;;;;39.17;15.10;;;;;;;-1.49;100.00;98999.44;5060878;28;20061;-77
2024/02/29 04:09:30;;;;;;;38.28;13.68;;;;;;;-1.53;100.00;98997.97;5073887;28;20021;-79
2024/02/29 04:11:55;;;;;;;39.75;15.32;;;;;;;-1.67;100.00;98985.81;5063089;28;20043;-77
2024/02/29 04:14:21;;;;;;;34.00;14.38;;;;;;;-1.57;100.00;99004.50;5069233;22;20549;-54
2024/02/29 04:16:46;;;;;;;33.47;13.75;;;;;;;-1.65;100.00;99015.72;5027420;28;20633;-54
2024/02/29 04:19:11;;;;;;;37.95;13.40;;;;;;;-1.68;100.00;99009.81;5031972;28;20083;-54
2024/02/29 04:21:42;;;;;;;35.15;13.98;;;;;;;-1.65;100.00;99020.16;5025915;28;20026;-54
2024/02/29 04:24:08;;;;;;;33.03;12.98;;;;;;;-1.65;100.00;99004.25;5033257;28;20421;-55
2024/02/29 04:26:33;;;;;;;33.90;13.90;;;;;;;-1.53;100.00;99000.63;5033566;28;20080;-54
2024/02/29 04:28:58;;;;;;;33.58;13.25;;;;;;;-1.54;100.00;98996.31;5032896;28;20033;-54
2024/02/29 04:31:24;;;;;;;42.05;14.55;;;;;;;-1.55;100.00;99000.78;5031891;28;20031;-53
2024/02/29 04:33:49;;;;;;;41.55;15.30;;;;;;;-1.56;100.00;98999.06;5039980;28;20029;-53
2024/02/29 04:36:14;;;;;;;41.38;14.95;;;;;;;-1.53;100.00;98992.69;5030838;28;20052;-54
2024/02/29 04:38:40;;;;;;;39.35;15.25;;;;;;;-1.50;100.00;98996.91;5033552;28;20029;-55
2024/02/29 04:41:05;;;;;;;42.20;15.70;;;;;;;-1.48;100.00;98992.31;5033086;28;20029;-54
2024/02/29 04:43:30;;;;;;;39.45;13.73;;;;;;;-1.50;100.00;98991.59;5034663;28;20034;-55
2024/02/29 04:45:56;;;;;;;46.40;14.93;;;;;;;-1.44;100.00;98991.09;5016349;28;20033;-55
2024/02/29 04:48:21;;;;;;;49.00;15.95;;;;;;;-1.34;100.00;98981.44;5029364;28;20065;-54
2024/02/29 04:50:47;;;;;;;46.88;16.42;;;;;;;-1.35;100.00;98983.25;5032430;28;20124;-57
2024/02/29 04:53:14;;;;;;;51.85;16.60;;;;;;;-1.27;100.00;98985.28;5035862;28;20063;-55
2024/02/29 04:55:39;;;;;;;42.22;14.80;;;;;;;-1.33;100.00;98977.81;5037483;28;20211;-54
2024/02/29 04:58:05;;;;;;;42.15;15.48;;;;;;;-1.40;100.00;98985.41;5032479;28;20116;-55
2024/02/29 05:00:30;;;;;;;39.00;15.10;;;;;;;-1.47;100.00;98980.72;5034447;28;20395;-54
2024/02/29 05:02:55;;;;;;;39.70;14.98;;;;;;;-1.49;100.00;98980.88;5027025;28;20641;-55
2024/02/29 05:05:21;;;;;;;36.97;13.73;;;;;;;-1.60;100.00;98972.91;5028308;28;20029;-54
2024/02/29 05:07:46;;;;;;;53.60;16.00;;;;;;;-1.55;100.00;98962.75;5031656;28;20029;-54
2024/02/29 05:10:12;;;;;;;49.63;15.60;;;;;;;-1.52;100.00;98964.31;5034731;28;20468;-54
2024/02/29 05:12:38;;;;;;;48.70;16.27;;;;;;;-1.40;100.00;98976.63;5032614;28;20365;-54
2024/02/29 05:15:03;;;;;;;66.78;21.80;;;;;;;-1.22;100.00;98972.47;5035284;28;20028;-54
2024/02/29 05:17:29;;;;;;;72.60;23.40;;;;;;;-1.24;100.00;98976.22;5029407;28;20045;-54
2024/02/29 05:19:56;;;;;;;57.55;20.98;;;;;;;-1.14;100.00;98970.03;5031948;28;20546;-54
2024/02/29 05:22:22;;;;;;;62.78;20.05;;;;;;;-1.13;100.00;98966.44;5031303;28;20103;-54
2024/02/29 05:24:47;;;;;;;62.75;20.58;;;;;;;-1.08;100.00;98967.84;5036062;28;20057;-54
2024/02/29 05:27:13;;;;;;;56.95;19.58;;;;;;;-1.11;100.00;98961.81;5029689;28;20037;-54
2024/02/29 05:29:38;;;;;;;54.72;18.33;;;;;;;-1.00;100.00;98952.97;5035066;28;20026;-54
2024/02/29 05:32:04;;;;;;;69.97;19.85;;;;;;;-1.03;100.00;98955.06;5033958;28;20036;-54
2024/02/29 05:34:29;;;;;;;60.92;20.25;;;;;;;-0.91;100.00;98954.88;5031314;28;20024;-54
2024/02/29 05:36:55;;;;;;;62.08;20.65;;;;;;;-0.88;100.00;98954.63;5033264;28;20033;-54
2024/02/29 05:39:20;;;;;;;64.65;22.23;;;;;;;-0.83;100.00;98964.88;5032787;28;20067;-54
2024/02/29 05:41:46;;;;;;;54.78;19.77;;;;;;;-0.79;100.00;98953.00;5033072;28;20140;-54
2024/02/29 05:44:11;;;;;;;53.75;18.48;;;;;;;-0.85;100.00;98944.72;5032245;28;20041;-54
2024/02/29 05:46:36;;;;;;;48.97;17.88;;;;;;;-0.87;100.00;98950.16;5030211;28;20029;-54
2024/02/29 05:49:02;;;;;;;51.70;16.88;;;;;;;-0.90;100.00;98943.28;5034343;28;20025;-54
2024/02/29 05:51:27;;;;;;;58.70;18.30;;;;;;;-0.73;100.00;98933.91;5032428;28;20017;-54
2024/02/29 05:53:53;;;;;;;59.92;19.40;;;;;;;-0.44;100.00;98938.59;5031202;28;20369;-54
2024/02/29 05:56:18;;;;;;;69.03;19.70;;;;;;;-0.15;100.00;98935.25;5032344;28;20113;-55
2024/02/29 05:58:44;;;;;;;75.63;20.08;;;;;;;0.27;100.00;98929.84;5034111;28;20032;-54
2024/02/29 06:01:10;;;;;;;87.13;23.50;;;;;;;0.36;100.00;98929.84;5029967;28;20026;-55
2024/02/29 06:03:38;;;;;;;96.07;24.02;;;;;;;0.79;100.00;98928.72;5029525;28;20029;-52
2024/02/29 06:06:04;;;;;;;79.25;23.42;;;;;;;0.80;100.00;98929.53;5032280;28;20096;-52
2024/02/29 06:08:30;;;;;;;81.60;23.45;;;;;;;0.73;100.00;98923.06;5032288;28;20120;-53
2024/02/29 06:10:55;;;;;;;85.70;23.65;;;;;;;0.77;100.00;98921.84;5035341;28;20078;-52
2024/02/29 06:13:21;;;;;;;81.68;23.52;;;;;;;0.96;100.00;98924.50;5015532;28;20075;-52
2024/02/29 06:15:46;;;;;;;86.70;24.13;;;;;;;0.88;100.00;98905.72;5032433;28;20025;-52
2024/02/29 06:18:13;;;;;;;79.28;23.40;;;;;;;0.87;100.00;98912.88;5033396;28;20017;-52
2024/02/29 06:20:38;;;;;;;80.60;23.23;;;;;;;0.90;100.00;98917.06;5029350;28;20038;-52
2024/02/29 06:23:05;;;;;;;81.18;24.55;;;;;;;1.16;100.00;98913.88;5030377;28;20034;-52
2024/02/29 06:25:31;;;;;;;76.43;23.70;;;;;;;1.30;100.00;98910.75;5026645;28;20461;-52
2024/02/29 06:27:57;;;;;;;75.90;23.85;;;;;;;1.38;100.00;98916.22;5029922;28;20416;-52
2024/02/29 06:30:29;;;;;;;68.90;22.67;;;;;;;1.44;100.00;98907.66;5032440;28;20759;-52
2024/02/29 06:32:55;;;;;;;66.50;20.58;;;;;;;1.59;100.00;98899.22;5031527;28;22795;-53
2024/02/29 06:35:20;;;;;;;81.45;22.50;;;;;;;1.78;100.00;98899.16;5032333;28;20069;-53
2024/02/29 06:37:45;;;;;;;68.32;22.50;;;;;;;1.89;100.00;98898.16;5031415;28;20500;-53
2024/02/29 06:40:11;;;;;;;72.78;23.17;;;;;;;2.35;100.00;98891.06;5032504;28;20041;-57
2024/02/29 06:42:37;;;;;;;75.35;22.35;;;;;;;3.07;100.00;98886.63;5033899;28;20025;-56
2024/02/29 06:45:09;;;;;;;65.07;22.25;;;;;;;3.83;100.00;98878.00;5017969;28;20385;-56
2024/02/29 06:47:39;;;;;;;56.22;20.27;;;;;;;4.68;100.00;98866.44;5033648;28;20373;-57
2024/02/29 06:50:06;;;;;;;49.72;19.23;;;;;;;5.25;100.00;98859.28;5015959;28;20079;-55
2024/02/29 06:52:31;;;;;;;53.22;18.88;;;;;;;6.00;100.00;98834.03;5035096;28;20051;-56
2024/02/29 06:54:56;;;;;;;40.53;17.55;;;;;;;6.16;100.00;98819.72;5030300;28;20030;-56
2024/02/29 06:57:38;;;;;;;43.17;17.80;;;;;;;7.24;100.00;98816.13;5029692;28;20052;-56
2024/02/29 07:00:05;;;;;;;37.97;16.50;;;;;;;7.45;100.00;98804.69;5029170;28;20490;-54
2024/02/29 07:02:32;;;;;;;41.45;16.00;;;;;;;7.69;100.00;98804.41;5013539;28;20022;-56
2024/02/29 07:04:58;;;;;;;37.03;15.30;;;;;;;7.64;100.00;98809.50;5023167;28;20037;-56
2024/02/29 07:07:25;;;;;;;37.53;15.30;;;;;;;7.38;100.00;98809.09;5032454;28;20072;-56
2024/02/29 07:09:52;;;;;;;38.42;15.85;;;;;;;7.32;100.00;98805.28;5021962;28;20030;-56
2024/02/29 07:12:18;;;;;;;40.78;16.65;;;;;;;7.29;100.00;98808.34;5025718;28;20017;-56
2024/02/29 07:14:43;;;;;;;33.03;14.48;;;;;;;7.92;100.00;98811.59;5029854;28;20029;-56
2024/02/29 07:17:09;;;;;;;39.08;16.23;;;;;;;8.39;100.00;98807.66;5028768;28;20034;-55
2024/02/29 07:19:34;;;;;;;36.45;16.10;;;;;;;8.64;100.00;98799.22;5021725;28;20116;-55
2024/02/29 07:22:00;;;;;;;35.42;15.50;;;;;;;8.65;100.00;98795.50;5028066;28;20025;-55
2024/02/29 07:24:26;;;;;;;38.47;16.23;;;;;;;8.64;100.00;98800.03;5028191;28;20228;-55
2024/02/29 07:26:53;;;;;;;37.22;15.32;;;;;;;9.12;100.00;98796.78;5028484;28;20036;-55
2024/02/29 07:29:19;;;;;;;37.83;15.60;;;;;;;9.37;100.00;98802.59;5030524;28;20022;-54
2024/02/29 07:31:45;;;;;;;32.22;15.60;;;;;;;9.35;100.00;98789.31;5029676;28;20025;-55
2024/02/29 07:34:10;;;;;;;36.38;14.95;;;;;;;10.15;100.00;98787.09;5026109;28;20025;-54
2024/02/29 07:36:39;;;;;;;33.40;15.63;;;;;;;11.42;100.00;98788.19;5012951;28;20045;-54
2024/02/29 07:39:06;;;;;;;37.22;15.48;;;;;;;12.51;100.00;98789.41;5029855;28;20522;-54
2024/02/29 07:41:32;;;;;;;29.30;14.00;;;;;;;13.20;100.00;98784.19;5026430;28;20032;-55
2024/02/29 07:43:57;;;;;;;31.40;15.32;;;;;;;13.55;96.05;98779.94;5026770;28;20025;-52
2024/02/29 07:46:23;;;;;;;33.05;15.70;;;;;;;13.96;86.13;98793.97;5025788;28;20034;-52
2024/02/29 07:48:48;;;;;;;34.05;17.27;;;;;;;15.12;78.09;98782.03;5029180;28;20025;-52
2024/02/29 07:51:18;;;;;;;35.33;17.73;;;;;;;14.58;73.76;98774.84;5029690;28;20026;-55
2024/02/29 07:53:46;;;;;;;;;;;;;;;15.01;73.50;98780.09;5032584;28;20050;-60
2024/02/29 07:56:12;;;;;;;29.65;14.75;;;;;;;15.48;73.34;98774.75;5030042;28;21066;-60
2024/02/29 07:58:38;;;;;;;30.95;15.75;;;;;;;16.66;68.94;98763.63;5033093;28;20548;-59
2024/02/29 08:01:03;;;;;;;27.85;15.15;;;;;;;17.54;64.80;98777.78;5022609;28;20061;-58
2024/02/29 08:03:30;;;;;;;30.88;16.10;;;;;;;18.42;62.43;98769.75;5027507;28;20032;-58
2024/02/29 08:05:55;;;;;;;28.52;16.60;;;;;;;18.41;60.66;98773.56;5027450;28;20033;-58
2024/02/29 08:08:21;;;;;;;30.92;17.23;;;;;;;17.78;59.32;98785.81;5024903;28;20035;-58
2024/02/29 08:10:46;;;;;;;32.28;17.95;;;;;;;18.76;57.60;98784.16;5022013;28;20017;-58
2024/02/29 08:13:11;;;;;;;31.05;16.58;;;;;;;19.93;57.08;98778.88;5019100;28;20029;-58
2024/02/29 08:15:37;;;;;;;30.10;16.92;;;;;;;19.45;55.57;98772.47;5011739;28;20026;-59
2024/02/29 08:18:02;;;;;;;26.30;15.95;;;;;;;20.62;52.41;98768.81;5028984;28;20031;-58
2024/02/29 08:20:28;;;;;;;28.38;16.42;;;;;;;19.03;52.17;98773.19;5022602;28;20021;-54
2024/02/29 08:22:54;;;;;;;26.90;15.93;;;;;;;20.03;52.13;98772.63;5029475;28;20091;-54
2024/02/29 08:25:23;;;;;;;31.65;16.35;;;;;;;19.82;51.62;98755.19;5009388;28;20550;-58
2024/02/29 08:27:50;;;;;;;25.50;14.90;;;;;;;19.82;51.24;98766.19;5028487;28;20088;-59
2024/02/29 08:30:16;;;;;;;28.15;16.10;;;;;;;19.02;52.52;98766.06;5006899;28;20382;-54
2024/02/29 08:32:41;;;;;;;28.50;15.77;;;;;;;19.19;53.64;98756.88;5012971;28;20020;-54
2024/02/29 08:35:10;;;;;;;25.00;14.98;;;;;;;19.79;53.20;98755.72;5029184;28;20057;-54
2024/02/29 08:37:35;;;;;;;37.00;15.65;;;;;;;19.57;52.05;98757.72;5025378;28;20045;-55
2024/02/29 08:40:04;;;;;;;28.48;15.15;;;;;;;18.89;53.98;98760.16;5009167;28;20069;-54
2024/02/29 08:42:30;;;;;;;27.38;14.85;;;;;;;19.75;51.70;98757.34;5027857;28;20034;-54
2024/02/29 08:44:56;;;;;;;28.42;15.88;;;;;;;20.22;50.21;98751.00;5028001;28;20424;-55
2024/02/29 08:47:21;;;;;;;27.10;15.88;;;;;;;18.24;55.42;98749.00;5028319;28;20026;-55
2024/02/29 08:49:47;;;;;;;28.02;15.07;;;;;;;20.00;52.95;98744.88;5008920;28;20033;-53
2024/02/29 08:52:12;;;;;;;27.70;15.60;;;;;;;21.03;50.71;98727.63;5007665;28;20075;-53
2024/02/29 08:54:38;;;;;;;29.33;16.00;;;;;;;21.33;49.81;98735.09;5030443;28;20040;-54
2024/02/29 08:57:04;;;;;;;34.60;16.63;;;;;;;21.32;50.23;98727.09;5025974;28;20117;-54
2024/02/29 08:59:30;;;;;;;30.77;16.60;;;;;;;21.35;49.28;98721.88;5030721;28;20087;-54
2024/02/29 09:01:56;;;;;;;29.35;16.02;;;;;;;21.61;49.48;98728.22;5010200;28;20029;-55
2024/02/29 09:04:22;;;;;;;28.10;15.48;;;;;;;22.97;46.91;98709.78;5024480;28;20030;-56
2024/02/29 09:06:48;;;;;;;29.15;16.65;;;;;;;22.89;45.70;98713.13;5016952;28;20080;-60
2024/02/29 09:09:13;;;;;;;29.80;16.95;;;;;;;21.89;48.37;98701.97;5013004;28;20053;-58
2024/02/29 09:11:39;;;;;;;30.13;17.67;;;;;;;22.42;45.92;98706.22;5026406;28;20033;-59
2024/02/29 09:14:04;;;;;;;27.80;17.77;;;;;;;22.91;46.15;98708.13;5034530;28;20531;-58
2024/02/29 09:16:30;;;;;;;32.40;18.30;;;;;;;21.82;47.28;98714.41;5032425;28;20026;-60
2024/02/29 09:18:56;;;;;;;31.52;17.92;;;;;;;22.07;47.43;98696.97;5014719;28;20053;-60
2024/02/29 09:21:22;;;;;;;32.47;16.95;;;;;;;22.24;46.76;98704.91;5030771;28;20029;-60
2024/02/29 09:23:50;;;;;;;32.67;16.35;;;;;;;23.19;46.32;98703.81;5033924;28;20037;-60
2024/02/29 09:26:18;;;;;;;27.02;17.98;;;;;;;23.44;45.20;98683.44;5033287;28;20029;-60
2024/02/29 09:28:44;;;;;;;30.48;17.45;;;;;;;24.56;43.23;98675.81;5035543;28;21678;-59
2024/02/29 09:31:12;;;;;;;32.15;18.83;;;;;;;22.67;44.08;98697.81;5032202;28;20022;-60
2024/02/29 09:33:38;;;;;;;31.55;18.88;;;;;;;21.99;46.29;98695.63;5029414;28;20036;-59
2024/02/29 09:36:11;;;;;;;34.15;16.83;;;;;;;23.32;45.47;98685.78;5031285;28;20669;-59
2024/02/29 09:38:39;;;;;;;33.63;18.25;;;;;;;21.89;46.37;98679.13;5034618;28;20037;-59
2024/02/29 09:41:07;;;;;;;30.33;18.50;;;;;;;21.85;48.06;98680.78;5032660;28;20026;-59
2024/02/29 09:43:33;;;;;;;32.85;17.48;;;;;;;23.01;46.25;98674.19;5024373;28;20071;-58
2024/02/29 09:46:00;;;;;;;28.75;16.73;;;;;;;23.10;45.53;98669.66;5036301;28;20033;-59
2024/02/29 09:48:25;;;;;;;29.98;18.40;;;;;;;22.88;45.67;98657.13;5031757;28;20029;-59
2024/02/29 09:50:58;;;;;;;30.13;16.65;;;;;;;24.25;45.14;98658.78;5030529;28;20098;-60
2024/02/29 09:53:25;;;;;;;29.63;16.80;;;;;;;25.19;43.11;98648.88;5028430;28;20029;-60
2024/02/29 09:55:51;;;;;;;28.48;17.38;;;;;;;24.75;42.56;98650.09;5015347;28;20022;-60
2024/02/29 09:58:20;;;;;;;32.28;18.00;;;;;;;24.53;43.67;98642.41;5026748;28;20029;-59
2024/02/29 10:00:47;;;;;;;28.10;17.40;;;;;;;25.26;43.10;98633.50;5030520;28;20044;-61
2024/02/29 10:03:16;;;;;;;29.90;17.25;;;;;;;24.08;42.67;98641.88;5030982;28;20084;-60
2024/02/29 10:05:46;;;;;;;28.60;16.60;;;;;;;24.53;43.26;98631.34;5033669;28;20025;-60
2024/02/29 10:08:12;;;;;;;30.00;18.38;;;;;;;23.67;43.95;98632.13;5033140;28;20037;-61
2024/02/29 10:10:38;;;;;;;27.58;17.33;;;;;;;24.35;43.85;98627.44;5038311;28;20045;-60
2024/02/29 10:13:05;;;;;;;30.05;18.08;;;;;;;24.10;42.67;98612.81;5032576;28;20029;-61
2024/02/29 10:15:30;;;;;;;30.10;17.75;;;;;;;23.83;44.12;98611.50;5028999;28;20029;-59
2024/02/29 10:17:56;;;;;;;30.75;17.42;;;;;;;23.88;43.32;98612.56;5029625;28;20025;-61
2024/02/29 10:20:22;;;;;;;29.98;17.85;;;;;;;24.79;43.39;98606.88;5032398;28;20064;-60
2024/02/29 10:22:54;;;;;;;32.95;17.67;;;;;;;24.62;42.46;98610.19;5028265;28;20112;-60
2024/02/29 10:25:26;;;;;;;31.92;18.85;;;;;;;24.63;42.65;98604.34;5028397;28;20030;-61
2024/02/29 10:28:00;;;;;;;28.10;17.40;;;;;;;26.16;40.83;98597.94;5031497;28;20053;-60
2024/02/29 10:30:27;;;;;;;25.90;16.75;;;;;;;26.56;40.95;98592.59;5033531;28;20030;-60
2024/02/29 10:32:52;;;;;;;27.90;17.27;;;;;;;27.35;38.65;98580.06;5029301;28;20033;-61
2024/02/29 10:35:20;;;;;;;28.90;18.25;;;;;;;25.47;40.14;98595.16;5035412;28;20079;-60
2024/02/29 10:37:55;;;;;;;31.33;17.75;;;;;;;24.52;42.08;98590.97;5015690;28;20033;-60
2024/02/29 10:40:21;;;;;;;30.25;18.88;;;;;;;24.14;41.59;98586.25;5024594;28;20045;-60
2024/02/29 10:42:55;;;;;;;26.52;16.48;;;;;;;25.44;41.77;98581.94;5033776;28;20052;-60
2024/02/29 10:45:22;;;;;;;31.33;18.55;;;;;;;25.77;41.15;98570.75;5032023;28;20083;-60
2024/02/29 10:48:05;;;;;;;31.67;16.50;;;;;;;26.38;40.08;98561.13;5030983;28;20033;-59
2024/02/29 10:50:37;;;;;;;27.88;18.33;;;;;;;24.91;41.30;98560.16;5030076;28;20108;-61
2024/02/29 10:53:19;;;;;;;25.48;17.25;;;;;;;25.86;40.12;98555.06;5033249;28;20028;-60
2024/02/29 10:55:51;;;;;;;25.00;15.75;;;;;;;26.76;40.43;98557.19;5036828;28;20079;-60
2024/02/29 10:58:25;;;;;;;24.23;16.15;;;;;;;28.12;39.18;98538.97;5030613;28;20049;-61
2024/02/29 11:00:51;;;;;;;27.38;17.25;;;;;;;28.46;36.60;98532.63;5031814;28;20044;-60
2024/02/29 11:03:18;;;;;;;23.70;16.75;;;;;;;28.29;37.35;98535.38;5034851;28;20021;-61
2024/02/29 11:05:45;;;;;;;24.42;15.88;;;;;;;27.90;38.62;98526.00;5026235;28;20504;-60
2024/02/29 11:08:12;;;;;;;24.40;16.23;;;;;;;28.87;36.89;98524.88;5027456;28;20029;-60